Terminal Aerodrome Forecast
Issued by NWS Charleston, WV

Home | Current Version | Previous Version | Text Only | Print | Product List | Glossary On
Versions: 1 2 3 4 5 6 7 8 9 10 11 12 13 14 15 16 17 18 19 20 21 22 23 24 25 26 27 28
000
FTUS41 KRLX 272300
TAFEKN
TAF
KEKN 272323Z 2800/2824 31009KT P6SM -SHRA OVC035
     FM280300 31007KT P6SM OVC025
     FM280600 33002KT P6SM BKN015
     FM280900 00000KT 5SM BR BKN020
     FM281400 33005KT P6SM SCT035=

USA.gov is the U.S. government's official web portal to all federal, state and local government web resources and services.